sensor_id;sensor_type;location;lat;lon;timestamp;P1;durP1;ratioP1;P2;durP2;ratioP2
2177;SDS011;1095;50.992;6.798;2023-06-10T00:01:55;23.17;;;20.75;;
2177;SDS011;1095;50.992;6.798;2023-06-10T00:04:24;23.45;;;21.00;;
2177;SDS011;1095;50.992;6.798;2023-06-10T00:06:51;20.20;;;18.10;;
2177;SDS011;1095;50.992;6.798;2023-06-10T00:09:18;25.15;;;22.55;;
2177;SDS011;1095;50.992;6.798;2023-06-10T00:11:46;20.98;;;18.65;;
2177;SDS011;1095;50.992;6.798;2023-06-10T00:14:13;18.85;;;17.05;;
2177;SDS011;1095;50.992;6.798;2023-06-10T00:16:40;15.57;;;13.98;;
2177;SDS011;1095;50.992;6.798;2023-06-10T00:19:10;15.75;;;14.05;;
2177;SDS011;1095;50.992;6.798;2023-06-10T00:21:40;16.27;;;13.13;;
2177;SDS011;1095;50.992;6.798;2023-06-10T00:24:07;16.63;;;13.52;;
2177;SDS011;1095;50.992;6.798;2023-06-10T00:26:37;14.98;;;12.77;;
2177;SDS011;1095;50.992;6.798;2023-06-10T00:29:03;14.13;;;12.63;;
2177;SDS011;1095;50.992;6.798;2023-06-10T00:31:30;15.02;;;13.10;;
2177;SDS011;1095;50.992;6.798;2023-06-10T00:33:57;17.02;;;14.57;;
2177;SDS011;1095;50.992;6.798;2023-06-10T00:36:24;15.98;;;14.25;;
2177;SDS011;1095;50.992;6.798;2023-06-10T00:38:52;15.48;;;13.50;;
2177;SDS011;1095;50.992;6.798;2023-06-10T00:41:19;15.13;;;13.00;;
2177;SDS011;1095;50.992;6.798;2023-06-10T00:43:46;15.32;;;13.73;;
2177;SDS011;1095;50.992;6.798;2023-06-10T00:46:12;17.63;;;13.27;;
2177;SDS011;1095;50.992;6.798;2023-06-10T00:48:40;15.07;;;13.77;;
2177;SDS011;1095;50.992;6.798;2023-06-10T00:51:08;14.90;;;12.88;;
2177;SDS011;1095;50.992;6.798;2023-06-10T00:53:35;15.52;;;13.55;;
2177;SDS011;1095;50.992;6.798;2023-06-10T00:56:06;17.00;;;13.88;;
2177;SDS011;1095;50.992;6.798;2023-06-10T00:58:33;15.02;;;13.52;;
2177;SDS011;1095;50.992;6.798;2023-06-10T01:01:01;15.32;;;13.82;;
2177;SDS011;1095;50.992;6.798;2023-06-10T01:03:29;17.08;;;14.05;;
2177;SDS011;1095;50.992;6.798;2023-06-10T01:05:57;14.95;;;13.52;;
2177;SDS011;1095;50.992;6.798;2023-06-10T01:08:32;15.40;;;13.48;;
2177;SDS011;1095;50.992;6.798;2023-06-10T01:11:04;16.85;;;14.10;;
2177;SDS011;1095;50.992;6.798;2023-06-10T01:13:40;14.98;;;13.57;;
2177;SDS011;1095;50.992;6.798;2023-06-10T01:16:08;16.63;;;14.52;;
2177;SDS011;1095;50.992;6.798;2023-06-10T01:18:36;15.45;;;13.85;;
2177;SDS011;1095;50.992;6.798;2023-06-10T01:21:03;16.35;;;14.65;;
2177;SDS011;1095;50.992;6.798;2023-06-10T01:23:34;16.33;;;14.73;;
2177;SDS011;1095;50.992;6.798;2023-06-10T01:26:02;15.88;;;13.75;;
2177;SDS011;1095;50.992;6.798;2023-06-10T01:28:33;15.50;;;13.80;;
2177;SDS011;1095;50.992;6.798;2023-06-10T01:31:08;15.65;;;13.98;;
2177;SDS011;1095;50.992;6.798;2023-06-10T01:33:41;15.88;;;14.27;;
2177;SDS011;1095;50.992;6.798;2023-06-10T01:36:10;15.60;;;14.10;;
2177;SDS011;1095;50.992;6.798;2023-06-10T01:38:40;16.05;;;14.35;;
2177;SDS011;1095;50.992;6.798;2023-06-10T01:41:09;17.38;;;15.02;;
2177;SDS011;1095;50.992;6.798;2023-06-10T01:43:38;15.93;;;14.43;;
2177;SDS011;1095;50.992;6.798;2023-06-10T01:46:06;15.63;;;13.98;;
2177;SDS011;1095;50.992;6.798;2023-06-10T01:48:32;24.48;;;14.70;;
2177;SDS011;1095;50.992;6.798;2023-06-10T01:50:59;17.63;;;14.68;;
2177;SDS011;1095;50.992;6.798;2023-06-10T01:53:26;15.50;;;14.00;;
2177;SDS011;1095;50.992;6.798;2023-06-10T01:55:54;15.90;;;14.27;;
2177;SDS011;1095;50.992;6.798;2023-06-10T01:58:21;16.83;;;14.02;;
2177;SDS011;1095;50.992;6.798;2023-06-10T02:00:47;15.90;;;14.20;;
2177;SDS011;1095;50.992;6.798;2023-06-10T02:03:14;16.95;;;15.18;;
2177;SDS011;1095;50.992;6.798;2023-06-10T02:05:41;18.80;;;15.50;;
2177;SDS011;1095;50.992;6.798;2023-06-10T02:08:07;19.75;;;16.27;;
2177;SDS011;1095;50.992;6.798;2023-06-10T02:10:34;17.60;;;15.80;;
2177;SDS011;1095;50.992;6.798;2023-06-10T02:13:02;18.20;;;16.40;;
2177;SDS011;1095;50.992;6.798;2023-06-10T02:15:28;21.15;;;16.38;;
2177;SDS011;1095;50.992;6.798;2023-06-10T02:17:55;19.05;;;16.98;;
2177;SDS011;1095;50.992;6.798;2023-06-10T02:20:23;18.05;;;16.15;;
2177;SDS011;1095;50.992;6.798;2023-06-10T02:22:49;19.48;;;17.38;;
2177;SDS011;1095;50.992;6.798;2023-06-10T02:25:16;18.42;;;16.63;;
2177;SDS011;1095;50.992;6.798;2023-06-10T02:27:43;17.90;;;16.10;;
2177;SDS011;1095;50.992;6.798;2023-06-10T02:30:12;18.52;;;16.60;;
2177;SDS011;1095;50.992;6.798;2023-06-10T02:32:39;19.50;;;17.55;;
2177;SDS011;1095;50.992;6.798;2023-06-10T02:35:06;19.13;;;17.33;;
2177;SDS011;1095;50.992;6.798;2023-06-10T02:37:37;19.50;;;17.48;;
2177;SDS011;1095;50.992;6.798;2023-06-10T02:40:04;18.42;;;16.63;;
2177;SDS011;1095;50.992;6.798;2023-06-10T02:42:32;18.42;;;16.52;;
2177;SDS011;1095;50.992;6.798;2023-06-10T02:44:59;18.77;;;16.80;;
2177;SDS011;1095;50.992;6.798;2023-06-10T02:47:27;19.40;;;17.38;;
2177;SDS011;1095;50.992;6.798;2023-06-10T02:49:54;18.52;;;16.58;;
2177;SDS011;1095;50.992;6.798;2023-06-10T02:52:21;19.10;;;17.15;;
2177;SDS011;1095;50.992;6.798;2023-06-10T02:54:47;18.45;;;16.65;;
2177;SDS011;1095;50.992;6.798;2023-06-10T02:57:14;18.73;;;16.92;;
2177;SDS011;1095;50.992;6.798;2023-06-10T02:59:41;20.38;;;17.77;;
2177;SDS011;1095;50.992;6.798;2023-06-10T03:02:07;20.95;;;16.80;;
2177;SDS011;1095;50.992;6.798;2023-06-10T03:04:35;18.77;;;16.77;;
2177;SDS011;1095;50.992;6.798;2023-06-10T03:07:02;18.75;;;16.85;;
2177;SDS011;1095;50.992;6.798;2023-06-10T03:09:32;18.95;;;17.15;;
2177;SDS011;1095;50.992;6.798;2023-06-10T03:11:58;18.10;;;16.23;;
2177;SDS011;1095;50.992;6.798;2023-06-10T03:14:25;18.33;;;16.52;;
2177;SDS011;1095;50.992;6.798;2023-06-10T03:16:52;19.20;;;17.25;;
2177;SDS011;1095;50.992;6.798;2023-06-10T03:19:18;17.67;;;15.80;;
2177;SDS011;1095;50.992;6.798;2023-06-10T03:21:49;18.90;;;16.85;;
2177;SDS011;1095;50.992;6.798;2023-06-10T03:24:20;19.65;;;16.08;;
2177;SDS011;1095;50.992;6.798;2023-06-10T03:26:47;17.50;;;15.80;;
2177;SDS011;1095;50.992;6.798;2023-06-10T03:29:14;18.27;;;16.38;;
2177;SDS011;1095;50.992;6.798;2023-06-10T03:31:40;17.52;;;15.93;;
2177;SDS011;1095;50.992;6.798;2023-06-10T03:34:07;18.30;;;16.42;;
2177;SDS011;1095;50.992;6.798;2023-06-10T03:36:34;18.25;;;16.15;;
2177;SDS011;1095;50.992;6.798;2023-06-10T03:39:03;18.75;;;16.85;;
2177;SDS011;1095;50.992;6.798;2023-06-10T03:41:30;18.08;;;16.15;;
2177;SDS011;1095;50.992;6.798;2023-06-10T03:43:57;20.63;;;16.90;;
2177;SDS011;1095;50.992;6.798;2023-06-10T03:46:23;18.45;;;16.40;;
2177;SDS011;1095;50.992;6.798;2023-06-10T03:48:50;18.90;;;16.88;;
2177;SDS011;1095;50.992;6.798;2023-06-10T03:51:17;18.45;;;16.05;;
2177;SDS011;1095;50.992;6.798;2023-06-10T03:53:43;17.65;;;15.90;;
2177;SDS011;1095;50.992;6.798;2023-06-10T03:56:11;18.88;;;16.88;;
2177;SDS011;1095;50.992;6.798;2023-06-10T03:58:38;21.95;;;17.10;;
2177;SDS011;1095;50.992;6.798;2023-06-10T04:01:05;18.65;;;16.45;;
2177;SDS011;1095;50.992;6.798;2023-06-10T04:03:32;18.92;;;16.88;;
2177;SDS011;1095;50.992;6.798;2023-06-10T04:05:58;17.63;;;15.80;;
2177;SDS011;1095;50.992;6.798;2023-06-10T04:08:25;18.80;;;14.80;;
2177;SDS011;1095;50.992;6.798;2023-06-10T04:10:53;16.45;;;14.13;;
2177;SDS011;1095;50.992;6.798;2023-06-10T04:13:21;18.00;;;15.25;;
2177;SDS011;1095;50.992;6.798;2023-06-10T04:15:47;29.30;;;21.70;;
2177;SDS011;1095;50.992;6.798;2023-06-10T04:18:14;20.15;;;17.95;;
2177;SDS011;1095;50.992;6.798;2023-06-10T04:20:41;17.55;;;15.60;;
2177;SDS011;1095;50.992;6.798;2023-06-10T04:23:09;18.73;;;16.77;;
2177;SDS011;1095;50.992;6.798;2023-06-10T04:25:36;18.30;;;14.40;;
2177;SDS011;1095;50.992;6.798;2023-06-10T04:28:02;18.52;;;14.35;;
2177;SDS011;1095;50.992;6.798;2023-06-10T04:30:31;16.20;;;14.60;;
2177;SDS011;1095;50.992;6.798;2023-06-10T04:32:58;17.90;;;14.88;;
2177;SDS011;1095;50.992;6.798;2023-06-10T04:35:25;15.23;;;13.82;;
2177;SDS011;1095;50.992;6.798;2023-06-10T04:37:51;15.52;;;13.93;;
2177;SDS011;1095;50.992;6.798;2023-06-10T04:40:18;17.40;;;13.60;;
2177;SDS011;1095;50.992;6.798;2023-06-10T04:42:45;15.35;;;13.75;;
2177;SDS011;1095;50.992;6.798;2023-06-10T04:45:11;16.13;;;14.30;;
2177;SDS011;1095;50.992;6.798;2023-06-10T04:47:40;14.80;;;13.40;;
2177;SDS011;1095;50.992;6.798;2023-06-10T04:50:07;18.10;;;14.20;;
2177;SDS011;1095;50.992;6.798;2023-06-10T04:52:34;15.05;;;13.55;;
2177;SDS011;1095;50.992;6.798;2023-06-10T04:55:00;17.25;;;13.65;;
2177;SDS011;1095;50.992;6.798;2023-06-10T04:57:27;16.33;;;13.60;;
2177;SDS011;1095;50.992;6.798;2023-06-10T04:59:57;15.35;;;13.75;;
2177;SDS011;1095;50.992;6.798;2023-06-10T05:02:23;15.27;;;13.77;;
2177;SDS011;1095;50.992;6.798;2023-06-10T05:04:51;15.10;;;13.60;;
2177;SDS011;1095;50.992;6.798;2023-06-10T05:07:18;18.40;;;13.93;;
2177;SDS011;1095;50.992;6.798;2023-06-10T05:09:45;15.27;;;13.68;;
2177;SDS011;1095;50.992;6.798;2023-06-10T05:12:11;15.45;;;13.35;;
2177;SDS011;1095;50.992;6.798;2023-06-10T05:14:42;16.55;;;13.50;;
2177;SDS011;1095;50.992;6.798;2023-06-10T05:17:09;16.98;;;14.55;;
2177;SDS011;1095;50.992;6.798;2023-06-10T05:19:38;15.60;;;14.10;;
2177;SDS011;1095;50.992;6.798;2023-06-10T05:22:07;14.88;;;13.27;;
2177;SDS011;1095;50.992;6.798;2023-06-10T05:24:34;18.88;;;14.07;;
2177;SDS011;1095;50.992;6.798;2023-06-10T05:27:01;15.05;;;12.77;;
2177;SDS011;1095;50.992;6.798;2023-06-10T05:29:27;15.10;;;12.20;;
2177;SDS011;1095;50.992;6.798;2023-06-10T05:31:54;15.77;;;13.02;;
2177;SDS011;1095;50.992;6.798;2023-06-10T05:34:22;13.60;;;12.23;;
2177;SDS011;1095;50.992;6.798;2023-06-10T05:36:49;16.25;;;12.10;;
2177;SDS011;1095;50.992;6.798;2023-06-10T05:39:17;13.32;;;12.10;;
2177;SDS011;1095;50.992;6.798;2023-06-10T05:41:43;12.90;;;11.57;;
2177;SDS011;1095;50.992;6.798;2023-06-10T05:44:10;14.77;;;11.25;;
2177;SDS011;1095;50.992;6.798;2023-06-10T05:46:37;11.90;;;10.38;;
2177;SDS011;1095;50.992;6.798;2023-06-10T05:49:03;12.50;;;11.30;;
2177;SDS011;1095;50.992;6.798;2023-06-10T05:51:30;12.43;;;11.20;;
2177;SDS011;1095;50.992;6.798;2023-06-10T05:53:56;12.25;;;10.98;;
2177;SDS011;1095;50.992;6.798;2023-06-10T05:56:24;11.65;;;10.10;;
2177;SDS011;1095;50.992;6.798;2023-06-10T05:58:51;15.48;;;10.75;;
2177;SDS011;1095;50.992;6.798;2023-06-10T06:01:18;11.55;;;10.45;;
2177;SDS011;1095;50.992;6.798;2023-06-10T06:03:44;12.23;;;10.73;;
2177;SDS011;1095;50.992;6.798;2023-06-10T06:06:11;11.70;;;10.10;;
2177;SDS011;1095;50.992;6.798;2023-06-10T06:08:38;13.57;;;10.27;;
2177;SDS011;1095;50.992;6.798;2023-06-10T06:11:04;12.77;;;10.25;;
2177;SDS011;1095;50.992;6.798;2023-06-10T06:13:32;11.52;;;10.27;;
2177;SDS011;1095;50.992;6.798;2023-06-10T06:15:59;10.95;;;9.75;;
2177;SDS011;1095;50.992;6.798;2023-06-10T06:18:27;11.77;;;9.10;;
2177;SDS011;1095;50.992;6.798;2023-06-10T06:20:54;13.10;;;9.10;;
2177;SDS011;1095;50.992;6.798;2023-06-10T06:23:20;11.73;;;10.07;;
2177;SDS011;1095;50.992;6.798;2023-06-10T06:25:47;10.10;;;8.70;;
2177;SDS011;1095;50.992;6.798;2023-06-10T06:28:14;11.20;;;9.48;;
2177;SDS011;1095;50.992;6.798;2023-06-10T06:30:42;10.57;;;9.48;;
2177;SDS011;1095;50.992;6.798;2023-06-10T06:33:08;10.40;;;9.30;;
2177;SDS011;1095;50.992;6.798;2023-06-10T06:35:35;9.77;;;8.80;;
2177;SDS011;1095;50.992;6.798;2023-06-10T06:38:03;10.35;;;9.35;;
2177;SDS011;1095;50.992;6.798;2023-06-10T06:40:30;14.13;;;9.48;;
2177;SDS011;1095;50.992;6.798;2023-06-10T06:42:56;10.50;;;9.35;;
2177;SDS011;1095;50.992;6.798;2023-06-10T06:45:23;12.00;;;10.07;;
2177;SDS011;1095;50.992;6.798;2023-06-10T06:47:51;10.38;;;9.30;;
2177;SDS011;1095;50.992;6.798;2023-06-10T06:50:17;12.23;;;9.43;;
2177;SDS011;1095;50.992;6.798;2023-06-10T06:52:44;11.10;;;9.93;;
2177;SDS011;1095;50.992;6.798;2023-06-10T06:55:11;11.98;;;9.65;;
2177;SDS011;1095;50.992;6.798;2023-06-10T06:57:37;10.70;;;9.52;;
2177;SDS011;1095;50.992;6.798;2023-06-10T07:00:04;10.57;;;9.48;;
2177;SDS011;1095;50.992;6.798;2023-06-10T07:02:33;12.38;;;9.38;;
2177;SDS011;1095;50.992;6.798;2023-06-10T07:05:07;11.35;;;8.88;;
2177;SDS011;1095;50.992;6.798;2023-06-10T07:07:36;13.98;;;8.68;;
2177;SDS011;1095;50.992;6.798;2023-06-10T07:10:02;13.15;;;9.35;;
2177;SDS011;1095;50.992;6.798;2023-06-10T07:12:29;12.65;;;9.80;;
2177;SDS011;1095;50.992;6.798;2023-06-10T07:14:56;10.20;;;9.20;;
2177;SDS011;1095;50.992;6.798;2023-06-10T07:17:23;10.25;;;9.02;;
2177;SDS011;1095;50.992;6.798;2023-06-10T07:19:53;9.98;;;9.02;;
2177;SDS011;1095;50.992;6.798;2023-06-10T07:22:23;14.32;;;9.13;;
2177;SDS011;1095;50.992;6.798;2023-06-10T07:24:50;9.25;;;8.27;;
2177;SDS011;1095;50.992;6.798;2023-06-10T07:27:19;9.95;;;8.85;;
2177;SDS011;1095;50.992;6.798;2023-06-10T07:29:46;10.23;;;9.18;;
2177;SDS011;1095;50.992;6.798;2023-06-10T07:32:13;20.63;;;10.13;;
2177;SDS011;1095;50.992;6.798;2023-06-10T07:34:39;10.43;;;8.73;;
2177;SDS011;1095;50.992;6.798;2023-06-10T07:37:06;9.00;;;8.10;;
2177;SDS011;1095;50.992;6.798;2023-06-10T07:39:35;10.00;;;8.52;;
2177;SDS011;1095;50.992;6.798;2023-06-10T07:42:01;11.23;;;8.70;;
2177;SDS011;1095;50.992;6.798;2023-06-10T07:44:28;11.02;;;8.63;;
2177;SDS011;1095;50.992;6.798;2023-06-10T07:46:54;13.25;;;8.40;;
2177;SDS011;1095;50.992;6.798;2023-06-10T07:49:22;13.45;;;8.82;;
2177;SDS011;1095;50.992;6.798;2023-06-10T07:51:49;9.32;;;8.25;;
2177;SDS011;1095;50.992;6.798;2023-06-10T07:54:16;9.70;;;8.18;;
2177;SDS011;1095;50.992;6.798;2023-06-10T07:56:44;9.00;;;8.00;;
2177;SDS011;1095;50.992;6.798;2023-06-10T07:59:11;9.77;;;8.80;;
2177;SDS011;1095;50.992;6.798;2023-06-10T08:01:37;9.40;;;8.45;;
2177;SDS011;1095;50.992;6.798;2023-06-10T08:04:04;11.63;;;8.93;;
2177;SDS011;1095;50.992;6.798;2023-06-10T08:06:31;9.18;;;8.18;;
2177;SDS011;1095;50.992;6.798;2023-06-10T08:08:58;9.48;;;8.48;;
2177;SDS011;1095;50.992;6.798;2023-06-10T08:11:25;9.88;;;8.63;;
2177;SDS011;1095;50.992;6.798;2023-06-10T08:13:54;13.10;;;9.50;;
2177;SDS011;1095;50.992;6.798;2023-06-10T08:16:21;10.13;;;8.75;;
2177;SDS011;1095;50.992;6.798;2023-06-10T08:18:48;10.52;;;8.77;;
2177;SDS011;1095;50.992;6.798;2023-06-10T08:21:15;10.32;;;9.15;;
2177;SDS011;1095;50.992;6.798;2023-06-10T08:23:42;10.70;;;8.63;;
2177;SDS011;1095;50.992;6.798;2023-06-10T08:26:09;10.27;;;9.10;;
2177;SDS011;1095;50.992;6.798;2023-06-10T08:28:35;9.93;;;8.93;;
2177;SDS011;1095;50.992;6.798;2023-06-10T08:31:03;10.80;;;9.32;;
2177;SDS011;1095;50.992;6.798;2023-06-10T08:33:30;11.30;;;8.32;;
2177;SDS011;1095;50.992;6.798;2023-06-10T08:35:57;12.57;;;9.20;;
2177;SDS011;1095;50.992;6.798;2023-06-10T08:38:23;11.80;;;9.40;;
2177;SDS011;1095;50.992;6.798;2023-06-10T08:40:50;10.25;;;8.75;;
2177;SDS011;1095;50.992;6.798;2023-06-10T08:45:51;9.98;;;8.95;;
2177;SDS011;1095;50.992;6.798;2023-06-10T08:48:23;12.13;;;9.38;;
2177;SDS011;1095;50.992;6.798;2023-06-10T08:50:51;10.30;;;9.23;;
2177;SDS011;1095;50.992;6.798;2023-06-10T08:53:19;10.55;;;9.45;;
2177;SDS011;1095;50.992;6.798;2023-06-10T08:55:46;10.57;;;9.52;;
2177;SDS011;1095;50.992;6.798;2023-06-10T08:58:17;11.88;;;8.85;;
2177;SDS011;1095;50.992;6.798;2023-06-10T09:00:44;9.85;;;8.95;;
2177;SDS011;1095;50.992;6.798;2023-06-10T09:03:12;11.80;;;9.43;;
2177;SDS011;1095;50.992;6.798;2023-06-10T09:05:40;13.00;;;9.57;;
2177;SDS011;1095;50.992;6.798;2023-06-10T09:08:08;10.57;;;9.50;;
2177;SDS011;1095;50.992;6.798;2023-06-10T09:10:35;10.80;;;9.70;;
2177;SDS011;1095;50.992;6.798;2023-06-10T09:13:05;11.13;;;9.13;;
2177;SDS011;1095;50.992;6.798;2023-06-10T09:15:32;12.15;;;9.90;;
2177;SDS011;1095;50.992;6.798;2023-06-10T09:17:58;12.55;;;9.52;;
2177;SDS011;1095;50.992;6.798;2023-06-10T09:20:26;11.00;;;9.90;;
2177;SDS011;1095;50.992;6.798;2023-06-10T09:22:54;11.23;;;9.35;;
2177;SDS011;1095;50.992;6.798;2023-06-10T09:25:20;12.05;;;10.05;;
2177;SDS011;1095;50.992;6.798;2023-06-10T09:28:02;12.20;;;9.90;;
2177;SDS011;1095;50.992;6.798;2023-06-10T09:30:29;10.88;;;9.77;;
2177;SDS011;1095;50.992;6.798;2023-06-10T09:32:57;10.65;;;9.65;;
2177;SDS011;1095;50.992;6.798;2023-06-10T09:35:26;10.50;;;9.45;;
2177;SDS011;1095;50.992;6.798;2023-06-10T09:37:55;11.18;;;9.73;;
2177;SDS011;1095;50.992;6.798;2023-06-10T09:40:23;14.50;;;9.98;;
2177;SDS011;1095;50.992;6.798;2023-06-10T09:42:52;12.98;;;9.60;;
2177;SDS011;1095;50.992;6.798;2023-06-10T09:45:21;15.80;;;9.88;;
2177;SDS011;1095;50.992;6.798;2023-06-10T09:47:51;11.20;;;10.10;;
2177;SDS011;1095;50.992;6.798;2023-06-10T09:50:18;12.02;;;9.82;;
2177;SDS011;1095;50.992;6.798;2023-06-10T09:52:45;10.82;;;9.73;;
2177;SDS011;1095;50.992;6.798;2023-06-10T09:55:15;11.85;;;10.65;;
2177;SDS011;1095;50.992;6.798;2023-06-10T09:57:43;14.05;;;10.52;;
2177;SDS011;1095;50.992;6.798;2023-06-10T10:00:13;13.68;;;10.43;;
2177;SDS011;1095;50.992;6.798;2023-06-10T10:02:45;11.30;;;9.88;;
2177;SDS011;1095;50.992;6.798;2023-06-10T10:05:13;13.90;;;10.23;;
2177;SDS011;1095;50.992;6.798;2023-06-10T10:07:41;11.95;;;9.90;;
2177;SDS011;1095;50.992;6.798;2023-06-10T10:10:08;13.43;;;10.57;;
2177;SDS011;1095;50.992;6.798;2023-06-10T10:12:36;11.20;;;10.10;;
2177;SDS011;1095;50.992;6.798;2023-06-10T10:15:05;14.15;;;10.27;;
2177;SDS011;1095;50.992;6.798;2023-06-10T10:17:34;12.63;;;11.35;;
2177;SDS011;1095;50.992;6.798;2023-06-10T10:20:02;12.68;;;10.60;;
2177;SDS011;1095;50.992;6.798;2023-06-10T10:22:31;12.60;;;10.73;;
2177;SDS011;1095;50.992;6.798;2023-06-10T10:25:03;11.18;;;10.07;;
2177;SDS011;1095;50.992;6.798;2023-06-10T10:27:39;12.00;;;10.48;;
2177;SDS011;1095;50.992;6.798;2023-06-10T10:30:10;11.65;;;10.18;;
2177;SDS011;1095;50.992;6.798;2023-06-10T10:32:43;11.82;;;10.52;;
2177;SDS011;1095;50.992;6.798;2023-06-10T10:35:21;12.60;;;10.27;;
2177;SDS011;1095;50.992;6.798;2023-06-10T10:37:49;13.90;;;10.65;;
2177;SDS011;1095;50.992;6.798;2023-06-10T10:40:17;11.70;;;9.50;;
2177;SDS011;1095;50.992;6.798;2023-06-10T10:42:47;13.75;;;10.25;;
2177;SDS011;1095;50.992;6.798;2023-06-10T10:45:14;13.98;;;10.68;;
2177;SDS011;1095;50.992;6.798;2023-06-10T10:47:42;11.00;;;9.90;;
2177;SDS011;1095;50.992;6.798;2023-06-10T10:50:14;10.95;;;9.73;;
2177;SDS011;1095;50.992;6.798;2023-06-10T10:52:52;12.37;;;10.23;;
2177;SDS011;1095;50.992;6.798;2023-06-10T10:55:21;11.63;;;10.52;;
2177;SDS011;1095;50.992;6.798;2023-06-10T10:57:56;12.25;;;10.15;;
2177;SDS011;1095;50.992;6.798;2023-06-10T11:00:27;10.75;;;9.73;;
2177;SDS011;1095;50.992;6.798;2023-06-10T11:02:57;12.52;;;9.93;;
2177;SDS011;1095;50.992;6.798;2023-06-10T11:05:32;11.30;;;10.00;;
2177;SDS011;1095;50.992;6.798;2023-06-10T11:08:02;12.02;;;10.75;;
2177;SDS011;1095;50.992;6.798;2023-06-10T11:10:30;11.63;;;10.48;;
2177;SDS011;1095;50.992;6.798;2023-06-10T11:12:58;11.43;;;10.35;;
2177;SDS011;1095;50.992;6.798;2023-06-10T11:15:26;14.38;;;10.32;;
2177;SDS011;1095;50.992;6.798;2023-06-10T11:18:12;16.20;;;10.60;;
2177;SDS011;1095;50.992;6.798;2023-06-10T11:26:21;12.25;;;11.02;;
2177;SDS011;1095;50.992;6.798;2023-06-10T11:29:02;11.68;;;10.52;;
2177;SDS011;1095;50.992;6.798;2023-06-10T11:31:30;12.40;;;10.85;;
2177;SDS011;1095;50.992;6.798;2023-06-10T11:33:59;11.57;;;10.48;;
2177;SDS011;1095;50.992;6.798;2023-06-10T11:36:27;11.98;;;10.65;;
2177;SDS011;1095;50.992;6.798;2023-06-10T11:38:56;14.43;;;10.57;;
2177;SDS011;1095;50.992;6.798;2023-06-10T11:41:25;13.93;;;10.50;;
2177;SDS011;1095;50.992;6.798;2023-06-10T11:44:04;12.07;;;10.65;;
2177;SDS011;1095;50.992;6.798;2023-06-10T11:46:35;14.85;;;10.77;;
2177;SDS011;1095;50.992;6.798;2023-06-10T11:49:02;11.90;;;10.68;;
2177;SDS011;1095;50.992;6.798;2023-06-10T11:51:32;11.40;;;10.30;;
2177;SDS011;1095;50.992;6.798;2023-06-10T11:54:01;11.95;;;10.82;;
2177;SDS011;1095;50.992;6.798;2023-06-10T11:56:28;11.82;;;10.07;;
2177;SDS011;1095;50.992;6.798;2023-06-10T11:58:56;11.23;;;10.10;;
2177;SDS011;1095;50.992;6.798;2023-06-10T12:01:30;11.70;;;10.50;;
2177;SDS011;1095;50.992;6.798;2023-06-10T12:04:07;14.77;;;10.60;;
2177;SDS011;1095;50.992;6.798;2023-06-10T12:07:16;14.60;;;10.57;;
2177;SDS011;1095;50.992;6.798;2023-06-10T12:10:03;14.07;;;10.45;;
2177;SDS011;1095;50.992;6.798;2023-06-10T12:12:48;12.35;;;10.25;;
2177;SDS011;1095;50.992;6.798;2023-06-10T12:15:53;11.68;;;10.00;;
2177;SDS011;1095;50.992;6.798;2023-06-10T12:18:46;15.40;;;10.13;;
2177;SDS011;1095;50.992;6.798;2023-06-10T12:21:31;10.50;;;9.50;;
2177;SDS011;1095;50.992;6.798;2023-06-10T12:24:02;11.10;;;8.73;;
2177;SDS011;1095;50.992;6.798;2023-06-10T12:26:37;10.27;;;9.20;;
2177;SDS011;1095;50.992;6.798;2023-06-10T12:29:15;9.35;;;8.35;;
2177;SDS011;1095;50.992;6.798;2023-06-10T12:31:55;10.93;;;8.98;;
2177;SDS011;1095;50.992;6.798;2023-06-10T12:34:32;12.93;;;9.13;;
2177;SDS011;1095;50.992;6.798;2023-06-10T12:37:00;9.55;;;8.60;;
2177;SDS011;1095;50.992;6.798;2023-06-10T12:39:29;11.73;;;9.05;;
2177;SDS011;1095;50.992;6.798;2023-06-10T12:41:56;10.20;;;9.20;;
2177;SDS011;1095;50.992;6.798;2023-06-10T12:44:32;11.15;;;8.93;;
2177;SDS011;1095;50.992;6.798;2023-06-10T12:47:00;10.82;;;8.75;;
2177;SDS011;1095;50.992;6.798;2023-06-10T12:49:34;11.90;;;9.18;;
2177;SDS011;1095;50.992;6.798;2023-06-10T12:52:04;12.30;;;9.13;;
2177;SDS011;1095;50.992;6.798;2023-06-10T12:54:34;10.95;;;9.02;;
2177;SDS011;1095;50.992;6.798;2023-06-10T12:57:00;12.18;;;9.35;;
2177;SDS011;1095;50.992;6.798;2023-06-10T12:59:27;9.77;;;8.70;;
2177;SDS011;1095;50.992;6.798;2023-06-10T13:01:58;10.05;;;9.10;;
2177;SDS011;1095;50.992;6.798;2023-06-10T13:04:24;9.63;;;8.60;;
2177;SDS011;1095;50.992;6.798;2023-06-10T13:06:53;10.10;;;8.90;;
2177;SDS011;1095;50.992;6.798;2023-06-10T13:09:19;9.43;;;8.52;;
2177;SDS011;1095;50.992;6.798;2023-06-10T13:11:46;10.85;;;8.38;;
2177;SDS011;1095;50.992;6.798;2023-06-10T13:14:13;13.68;;;8.10;;
2177;SDS011;1095;50.992;6.798;2023-06-10T13:16:39;8.75;;;7.90;;
2177;SDS011;1095;50.992;6.798;2023-06-10T13:19:06;9.65;;;8.60;;
2177;SDS011;1095;50.992;6.798;2023-06-10T13:21:33;8.95;;;8.10;;
2177;SDS011;1095;50.992;6.798;2023-06-10T13:24:01;9.15;;;8.20;;
2177;SDS011;1095;50.992;6.798;2023-06-10T13:26:28;10.13;;;9.13;;
2177;SDS011;1095;50.992;6.798;2023-06-10T13:28:55;10.90;;;9.50;;
2177;SDS011;1095;50.992;6.798;2023-06-10T13:31:21;11.32;;;9.20;;
2177;SDS011;1095;50.992;6.798;2023-06-10T13:33:48;11.50;;;8.88;;
2177;SDS011;1095;50.992;6.798;2023-06-10T13:36:14;10.38;;;9.45;;
2177;SDS011;1095;50.992;6.798;2023-06-10T13:38:41;11.13;;;9.05;;
2177;SDS011;1095;50.992;6.798;2023-06-10T13:41:09;11.43;;;9.50;;
2177;SDS011;1095;50.992;6.798;2023-06-10T13:43:37;9.75;;;8.75;;
2177;SDS011;1095;50.992;6.798;2023-06-10T13:46:04;9.80;;;8.82;;
2177;SDS011;1095;50.992;6.798;2023-06-10T13:48:30;11.20;;;9.40;;
2177;SDS011;1095;50.992;6.798;2023-06-10T13:50:57;9.90;;;8.90;;
2177;SDS011;1095;50.992;6.798;2023-06-10T13:53:25;9.68;;;8.80;;
2177;SDS011;1095;50.992;6.798;2023-06-10T13:55:51;10.15;;;9.15;;
2177;SDS011;1095;50.992;6.798;2023-06-10T13:58:19;12.40;;;8.82;;
2177;SDS011;1095;50.992;6.798;2023-06-10T14:00:46;11.70;;;9.10;;
2177;SDS011;1095;50.992;6.798;2023-06-10T14:03:13;9.65;;;8.32;;
2177;SDS011;1095;50.992;6.798;2023-06-10T14:05:40;8.70;;;7.85;;
2177;SDS011;1095;50.992;6.798;2023-06-10T14:08:06;9.98;;;8.20;;
2177;SDS011;1095;50.992;6.798;2023-06-10T14:10:33;9.20;;;8.20;;
2177;SDS011;1095;50.992;6.798;2023-06-10T14:12:59;12.82;;;7.70;;
2177;SDS011;1095;50.992;6.798;2023-06-10T14:15:27;8.25;;;7.45;;
2177;SDS011;1095;50.992;6.798;2023-06-10T14:17:55;8.40;;;7.50;;
2177;SDS011;1095;50.992;6.798;2023-06-10T14:20:22;8.52;;;7.43;;
2177;SDS011;1095;50.992;6.798;2023-06-10T14:22:50;8.90;;;7.43;;
2177;SDS011;1095;50.992;6.798;2023-06-10T14:25:17;8.60;;;7.70;;
2177;SDS011;1095;50.992;6.798;2023-06-10T14:27:43;9.07;;;7.40;;
2177;SDS011;1095;50.992;6.798;2023-06-10T14:30:12;10.23;;;7.38;;
2177;SDS011;1095;50.992;6.798;2023-06-10T14:32:43;8.80;;;7.75;;
2177;SDS011;1095;50.992;6.798;2023-06-10T14:35:09;9.73;;;7.55;;
2177;SDS011;1095;50.992;6.798;2023-06-10T14:37:36;12.93;;;7.93;;
2177;SDS011;1095;50.992;6.798;2023-06-10T14:40:03;10.93;;;7.78;;
2177;SDS011;1095;50.992;6.798;2023-06-10T14:42:31;8.60;;;7.68;;
2177;SDS011;1095;50.992;6.798;2023-06-10T14:44:58;9.90;;;8.15;;
2177;SDS011;1095;50.992;6.798;2023-06-10T14:47:25;9.40;;;7.80;;
2177;SDS011;1095;50.992;6.798;2023-06-10T14:49:53;9.50;;;7.70;;
2177;SDS011;1095;50.992;6.798;2023-06-10T14:52:20;8.82;;;7.47;;
2177;SDS011;1095;50.992;6.798;2023-06-10T14:54:46;9.25;;;7.70;;
2177;SDS011;1095;50.992;6.798;2023-06-10T14:57:13;9.35;;;7.50;;
2177;SDS011;1095;50.992;6.798;2023-06-10T14:59:40;9.65;;;7.53;;
2177;SDS011;1095;50.992;6.798;2023-06-10T15:02:06;9.40;;;7.65;;
2177;SDS011;1095;50.992;6.798;2023-06-10T15:04:33;11.43;;;7.97;;
2177;SDS011;1095;50.992;6.798;2023-06-10T15:07:01;12.63;;;7.80;;
2177;SDS011;1095;50.992;6.798;2023-06-10T15:09:28;10.40;;;7.72;;
2177;SDS011;1095;50.992;6.798;2023-06-10T15:11:54;9.23;;;7.82;;